Terminal Aerodrome Forecast
Issued by NWS Upton, NY

Home | Current Version | Previous Version | Text Only | Print | Product List | Glossary On
Versions: 1 2 3 4 5 6 7 8 9 10 11 12 13 14 15 16 17 18 19 20 21 22 23 24 25 26 27 28 29 30 31 32 33 34 35
260
FTUS41 KOKX 080532
TAFJFK
TAF
KJFK 080532Z 0806/0912 VRB04KT P6SM FEW040 BKN150
     FM081200 28011KT P6SM BKN120
     FM081800 27016G25KT P6SM FEW050
     FM082300 28018G28KT P6SM SCT030=

USA.gov is the U.S. government's official web portal to all federal, state and local government web resources and services.